Time;durP1;ratioP1;P1;durP2;ratioP2;P2;SDS_P1;SDS_P2;PMS_P1;PMS_P2;Temp;Humidity;BMP_temperature;BMP_pressure;BME280_temperature;BME280_humidity;BME280_pressure;Samples;Min_cycle;Max_cycle;Signal;HPM_P1;HPM_P2
2023/08/16 00:02:15;;;;;;;13.70;11.35;;;;;;;21.39;57.39;93996.31;4996005;28;20081;-80
2023/08/16 00:04:42;;;;;;;12.52;11.30;;;;;;;21.44;57.52;94008.69;4992227;28;20403;-79
2023/08/16 00:07:07;;;;;;;11.70;10.60;;;;;;;21.27;57.80;93991.19;4988702;28;20045;-80
2023/08/16 00:09:33;;;;;;;12.27;11.02;;;;;;;21.33;57.60;94005.91;4988472;28;20040;-79
2023/08/16 00:11:58;;;;;;;11.80;10.65;;;;;;;21.23;57.49;93995.03;4986906;28;20606;-79
2023/08/16 00:14:23;;;;;;;13.07;10.70;;;;;;;20.96;57.36;93959.28;4984383;28;20038;-79
2023/08/16 00:16:49;;;;;;;12.57;11.27;;;;;;;21.18;57.48;93993.44;4986337;28;20099;-79
2023/08/16 00:19:14;;;;;;;11.82;10.65;;;;;;;21.13;57.65;94004.59;4990946;28;20506;-79
2023/08/16 00:21:40;;;;;;;11.48;10.27;;;;;;;21.11;57.64;94006.16;4989167;28;20388;-79
2023/08/16 00:24:06;;;;;;;12.98;11.05;;;;;;;20.98;57.86;93997.53;4990957;28;20113;-79
2023/08/16 00:26:32;;;;;;;16.48;11.40;;;;;;;21.00;57.87;94008.75;4988738;28;20177;-79
2023/08/16 00:28:57;;;;;;;12.15;10.98;;;;;;;20.99;58.09;94018.00;4992941;28;20030;-80
2023/08/16 00:31:23;;;;;;;12.75;11.43;;;;;;;20.77;58.06;93997.34;4989994;28;20041;-80
2023/08/16 00:33:48;;;;;;;12.82;11.43;;;;;;;20.74;58.65;94006.19;4990448;28;20632;-80
2023/08/16 00:36:14;;;;;;;13.43;12.07;;;;;;;20.77;58.47;94013.56;4987842;28;20652;-78
2023/08/16 00:38:42;;;;;;;14.40;11.32;;;;;;;20.74;58.90;94015.06;4989342;28;20639;-80
2023/08/16 00:41:11;;;;;;;13.18;11.48;;;;;;;20.64;58.56;93998.75;4990770;28;20026;-78
2023/08/16 00:43:37;;;;;;;14.85;11.88;;;;;;;20.81;58.33;94014.38;5002874;28;20525;-79
2023/08/16 00:46:04;;;;;;;16.73;11.82;;;;;;;20.71;58.46;94006.94;4994366;28;20072;-78
2023/08/16 00:48:31;;;;;;;12.73;11.38;;;;;;;20.56;58.71;94004.09;4991983;28;20097;-79
2023/08/16 00:50:57;;;;;;;12.45;11.15;;;;;;;20.62;58.93;94011.88;4994844;28;20038;-80
2023/08/16 00:53:23;;;;;;;13.10;11.55;;;;;;;20.54;58.89;93998.28;4987570;28;20460;-79
2023/08/16 00:55:48;;;;;;;20.85;13.95;;;;;;;20.57;59.01;94015.69;4993004;28;20030;-79
2023/08/16 00:58:14;;;;;;;13.75;11.98;;;;;;;20.48;58.92;93997.06;4993742;28;20039;-79
2023/08/16 01:00:40;;;;;;;13.85;12.43;;;;;;;20.57;58.87;94018.38;4991737;28;20151;-80
2023/08/16 01:03:05;;;;;;;12.95;11.65;;;;;;;20.61;58.97;94016.50;4993667;28;20046;-78
2023/08/16 01:05:32;;;;;;;13.90;12.18;;;;;;;20.51;59.06;94009.06;4987537;28;20068;-78
2023/08/16 01:07:58;;;;;;;15.93;12.38;;;;;;;20.58;58.79;94011.84;4985065;28;20548;-79
2023/08/16 01:10:35;;;;;;;17.40;11.73;;;;;;;20.49;59.07;93997.81;4985856;28;20256;-79
2023/08/16 01:13:28;;;;;;;12.68;11.32;;;;;;;20.22;58.99;93956.69;4979238;28;20030;-80
2023/08/16 01:15:58;;;;;;;15.35;12.55;;;;;;;20.52;59.31;93997.09;4986743;28;20755;-79
2023/08/16 01:18:25;;;;;;;13.77;11.27;;;;;;;20.48;59.25;93999.75;4989337;28;20507;-79
2023/08/16 01:20:52;;;;;;;15.15;13.63;;;;;;;20.45;59.54;93989.69;4994499;28;20115;-79
2023/08/16 01:23:53;;;;;;;15.90;12.70;;;;;;;20.50;59.13;94004.78;4990846;28;20078;-78
2023/08/16 01:26:35;;;;;;;13.27;11.85;;;;;;;20.43;59.18;94008.22;4992400;28;20064;-77
2023/08/16 01:29:03;;;;;;;14.95;11.98;;;;;;;20.39;59.13;93993.09;4989236;28;20494;-77
2023/08/16 01:31:29;;;;;;;16.45;11.85;;;;;;;20.34;58.80;93991.50;4993746;28;21039;-77
2023/08/16 01:33:56;;;;;;;14.18;12.23;;;;;;;20.41;59.13;94004.31;4993179;28;20038;-78
2023/08/16 01:36:22;;;;;;;13.55;11.80;;;;;;;20.39;59.22;94004.69;4986115;28;20137;-78
2023/08/16 01:38:48;;;;;;;14.32;12.98;;;;;;;20.32;59.19;93988.41;4989506;28;20042;-79
2023/08/16 01:41:49;;;;;;;16.77;12.35;;;;;;;20.37;58.93;93996.19;4996030;28;20030;-76
2023/08/16 01:44:18;;;;;;;16.92;12.65;;;;;;;20.22;59.19;93991.78;4978219;28;20050;-78
2023/08/16 01:46:45;;;;;;;15.27;13.05;;;;;;;20.15;59.65;93991.66;4992366;28;20050;-78
2023/08/16 01:49:10;;;;;;;13.55;12.07;;;;;;;20.12;59.65;93982.38;4990616;28;20518;-77
2023/08/16 01:51:36;;;;;;;17.15;13.23;;;;;;;20.06;59.78;93985.78;4990777;28;20032;-78
2023/08/16 01:54:02;;;;;;;12.68;11.32;;;;;;;20.07;59.95;93987.34;5001264;28;20155;-77
2023/08/16 01:56:27;;;;;;;15.98;12.50;;;;;;;19.98;59.99;93978.75;4992887;28;20884;-78
2023/08/16 01:58:53;;;;;;;15.77;13.13;;;;;;;20.07;59.63;93985.41;4991308;28;20038;-79
2023/08/16 02:01:18;;;;;;;14.60;13.10;;;;;;;20.10;59.93;93991.97;4987851;28;20034;-79
2023/08/16 02:03:44;;;;;;;14.65;12.05;;;;;;;20.04;59.80;93979.97;4990282;28;20036;-78
2023/08/16 02:06:09;;;;;;;12.57;11.27;;;;;;;20.13;59.95;93985.88;5000076;28;20039;-78
2023/08/16 02:08:35;;;;;;;22.08;12.20;;;;;;;20.05;59.90;93978.81;4999467;28;20114;-77
2023/08/16 02:11:00;;;;;;;13.70;11.73;;;;;;;19.99;59.81;93977.59;4993744;28;20084;-79
2023/08/16 02:13:26;;;;;;;12.98;11.50;;;;;;;20.05;60.07;93989.59;4988215;28;20047;-78
2023/08/16 02:16:01;;;;;;;12.65;11.35;;;;;;;20.04;59.98;93998.88;5014091;28;20569;-80
2023/08/16 02:18:31;;;;;;;14.38;11.80;;;;;;;19.90;60.02;93982.50;4990791;28;20134;-78
2023/08/16 02:20:57;;;;;;;12.80;11.60;;;;;;;19.91;60.09;93984.81;4985811;28;20043;-78
2023/08/16 02:23:23;;;;;;;14.27;12.75;;;;;;;19.92;60.12;93991.00;4995833;28;20034;-77
2023/08/16 02:25:49;;;;;;;17.42;13.55;;;;;;;19.86;59.97;93987.06;4992354;28;20731;-80
2023/08/16 02:28:14;;;;;;;12.82;11.50;;;;;;;19.68;60.20;93957.97;4993317;28;20053;-79
2023/08/16 02:30:39;;;;;;;15.30;12.20;;;;;;;19.81;60.56;93979.28;4989557;28;20030;-78
2023/08/16 02:33:05;;;;;;;13.13;11.27;;;;;;;19.72;60.47;93968.78;4988543;28;20092;-79
2023/08/16 02:35:31;;;;;;;13.70;12.30;;;;;;;19.77;60.49;93978.47;4990378;28;20049;-79
2023/08/16 02:37:57;;;;;;;15.73;11.43;;;;;;;19.85;60.21;93977.44;4990550;28;20030;-79
2023/08/16 02:40:22;;;;;;;17.17;12.65;;;;;;;19.77;60.33;93956.88;4985751;28;20039;-80
2023/08/16 02:42:49;;;;;;;12.95;11.18;;;;;;;19.89;60.33;93965.53;4991838;28;20505;-80
2023/08/16 02:45:15;;;;;;;16.00;12.90;;;;;;;19.87;60.56;93967.81;4989999;28;20045;-78
2023/08/16 02:47:40;;;;;;;14.95;12.07;;;;;;;19.73;60.83;93948.75;4995199;28;20034;-79
2023/08/16 02:50:06;;;;;;;14.48;12.43;;;;;;;19.85;60.73;93975.50;4995892;28;20049;-81
2023/08/16 02:52:32;;;;;;;15.00;12.13;;;;;;;19.87;60.50;93977.84;4999134;28;20119;-80
2023/08/16 02:54:57;;;;;;;13.43;12.00;;;;;;;19.79;60.47;93960.78;4979344;28;20038;-79
2023/08/16 02:57:23;;;;;;;13.02;11.82;;;;;;;19.77;60.64;93973.09;4993186;28;20042;-79
2023/08/16 02:59:48;;;;;;;14.18;12.65;;;;;;;19.74;60.76;93980.78;4988099;28;20039;-79
2023/08/16 03:02:14;;;;;;;14.40;13.00;;;;;;;19.74;60.71;93990.78;4990590;28;20206;-79
2023/08/16 03:04:40;;;;;;;17.40;13.68;;;;;;;19.61;60.88;93965.16;4993469;28;20043;-79
2023/08/16 03:07:06;;;;;;;16.92;12.82;;;;;;;19.54;61.23;93963.19;5006070;28;20076;-81
2023/08/16 03:09:32;;;;;;;16.60;14.07;;;;;;;19.62;61.26;93967.50;4990914;28;20770;-76
2023/08/16 03:11:58;;;;;;;23.02;13.65;;;;;;;19.63;61.39;93977.16;4995112;28;20061;-78
2023/08/16 03:14:23;;;;;;;18.33;12.60;;;;;;;19.72;60.86;93976.88;4995253;28;20124;-79
2023/08/16 03:16:49;;;;;;;15.93;13.55;;;;;;;19.56;61.31;93957.41;4990866;28;21018;-76
2023/08/16 03:19:14;;;;;;;14.40;12.90;;;;;;;19.69;61.22;93972.22;4993870;28;20034;-77
2023/08/16 03:21:39;;;;;;;17.10;14.18;;;;;;;19.69;61.42;93986.50;4998741;28;20521;-80
2023/08/16 03:24:06;;;;;;;14.00;12.55;;;;;;;19.68;61.61;93992.25;4990922;28;20063;-77
2023/08/16 03:26:31;;;;;;;15.38;13.18;;;;;;;19.67;61.15;93985.31;4994658;28;20504;-78
2023/08/16 03:28:57;;;;;;;15.73;13.13;;;;;;;19.60;61.14;93975.19;4989746;28;20026;-79
2023/08/16 03:31:22;;;;;;;14.50;13.00;;;;;;;19.48;61.34;93966.53;4989351;28;20034;-80
2023/08/16 03:33:48;;;;;;;17.42;13.80;;;;;;;19.66;61.45;93991.84;4985986;28;20045;-79
2023/08/16 03:36:13;;;;;;;15.82;14.25;;;;;;;19.44;61.43;93966.47;4998996;28;20049;-79
2023/08/16 03:38:41;;;;;;;14.70;13.20;;;;;;;19.53;61.54;93979.72;4991509;28;20038;-79
2023/08/16 03:41:07;;;;;;;17.80;12.88;;;;;;;19.69;61.52;93994.59;4993253;28;20031;-78
2023/08/16 03:43:35;;;;;;;16.85;13.05;;;;;;;19.65;61.34;93990.31;4993581;28;20149;-80
2023/08/16 03:46:00;;;;;;;16.80;13.68;;;;;;;19.51;61.40;93960.41;4989624;28;20038;-77
2023/08/16 03:48:26;;;;;;;15.63;13.43;;;;;;;19.68;61.37;93987.63;4992029;28;20041;-80
2023/08/16 03:50:51;;;;;;;14.40;12.93;;;;;;;19.76;61.29;93991.19;4990290;28;20530;-78
2023/08/16 03:53:17;;;;;;;13.77;12.13;;;;;;;19.72;61.32;93987.69;4989600;28;20014;-77
2023/08/16 03:55:42;;;;;;;15.32;13.55;;;;;;;19.62;61.43;93975.59;4989161;28;20038;-79
2023/08/16 03:58:08;;;;;;;16.50;13.93;;;;;;;19.75;61.46;93986.94;4997541;28;20593;-78
2023/08/16 04:00:36;;;;;;;15.90;13.63;;;;;;;19.78;61.53;93996.22;4995675;28;20545;-78
2023/08/16 04:03:04;;;;;;;17.75;13.32;;;;;;;19.69;61.20;93989.19;4989505;28;20305;-79
2023/08/16 04:05:30;;;;;;;17.95;12.10;;;;;;;19.45;61.59;93949.19;4989847;28;20545;-80
2023/08/16 04:07:55;;;;;;;16.73;12.98;;;;;;;19.80;61.35;94002.06;4992819;28;20119;-77
2023/08/16 04:10:21;;;;;;;15.85;11.75;;;;;;;19.77;61.43;94005.47;4985481;28;20504;-77
2023/08/16 04:12:46;;;;;;;21.02;12.52;;;;;;;19.70;61.69;93996.13;4995966;28;20093;-81
2023/08/16 04:15:12;;;;;;;23.33;12.75;;;;;;;19.56;61.48;93974.38;4991901;28;20040;-79
2023/08/16 04:17:37;;;;;;;17.05;12.48;;;;;;;19.78;61.37;93996.22;4988897;28;20042;-78
2023/08/16 04:20:07;;;;;;;14.95;12.43;;;;;;;19.67;61.54;93986.06;4990675;28;20029;-79
2023/08/16 04:22:34;;;;;;;14.52;12.38;;;;;;;19.71;61.54;94003.09;4989401;28;20045;-79
2023/08/16 04:24:59;;;;;;;18.95;11.30;;;;;;;19.81;61.98;94011.69;4990873;28;20035;-80
2023/08/16 04:27:25;;;;;;;14.30;11.90;;;;;;;19.75;61.85;94006.59;4994946;28;20452;-79
2023/08/16 04:29:50;;;;;;;11.55;10.05;;;;;;;19.71;61.94;94000.38;4988064;28;20190;-79
2023/08/16 04:32:15;;;;;;;14.27;11.60;;;;;;;19.69;62.32;93996.50;4987137;28;20034;-81
2023/08/16 04:34:41;;;;;;;14.30;12.55;;;;;;;19.81;62.48;94017.06;4990598;28;20039;-79
2023/08/16 04:37:06;;;;;;;14.15;12.20;;;;;;;19.84;62.33;94011.75;4991118;28;20036;-79
2023/08/16 04:39:31;;;;;;;13.82;12.30;;;;;;;19.86;61.86;94011.34;4995571;28;20031;-78
2023/08/16 04:41:57;;;;;;;21.08;13.10;;;;;;;19.87;61.64;93999.44;4985314;28;20134;-80
2023/08/16 04:44:23;;;;;;;20.67;12.63;;;;;;;19.94;61.86;94010.31;4990926;28;20482;-78
2023/08/16 04:46:49;;;;;;;17.33;12.60;;;;;;;19.91;62.12;93994.84;4980037;28;20278;-79
2023/08/16 04:49:15;;;;;;;16.85;12.15;;;;;;;19.94;62.67;93992.22;4994522;28;20038;-80
2023/08/16 04:51:40;;;;;;;14.75;12.00;;;;;;;20.01;62.08;94002.28;4994908;28;20462;-79
2023/08/16 04:54:07;;;;;;;15.25;12.93;;;;;;;20.06;61.61;94005.44;4988923;28;20440;-79
2023/08/16 04:56:33;;;;;;;18.08;11.80;;;;;;;20.06;61.63;93999.28;4989910;28;20030;-78
2023/08/16 04:58:58;;;;;;;16.92;13.10;;;;;;;20.21;61.31;94006.41;4993197;28;20027;-79
2023/08/16 05:01:24;;;;;;;19.00;12.95;;;;;;;20.14;61.34;93992.81;4990637;28;20046;-79
2023/08/16 05:03:52;;;;;;;17.27;11.98;;;;;;;20.34;60.42;94005.00;4993599;28;20042;-78
2023/08/16 05:06:18;;;;;;;15.77;12.32;;;;;;;20.31;60.03;94002.28;4988957;28;20396;-79
2023/08/16 05:08:44;;;;;;;13.13;11.43;;;;;;;20.42;59.55;94009.34;4992779;28;20038;-80
2023/08/16 05:11:09;;;;;;;13.80;11.75;;;;;;;20.25;59.43;93982.16;4995536;28;20033;-77
2023/08/16 05:13:35;;;;;;;13.43;11.30;;;;;;;20.46;59.71;94003.97;4995719;28;20478;-78
2023/08/16 05:16:00;;;;;;;13.85;11.93;;;;;;;20.40;58.94;94006.25;4991765;28;20096;-79
2023/08/16 05:18:26;;;;;;;21.30;13.18;;;;;;;20.45;59.45;94008.59;4981886;28;20046;-79
2023/08/16 05:20:52;;;;;;;13.35;12.05;;;;;;;20.44;59.23;93998.16;4984265;28;20034;-79
2023/08/16 05:23:18;;;;;;;14.55;11.98;;;;;;;20.61;58.94;94008.38;4994126;28;20219;-80
2023/08/16 05:25:43;;;;;;;16.75;13.02;;;;;;;20.58;58.48;94001.78;4984642;28;20023;-77
2023/08/16 05:28:09;;;;;;;12.05;10.57;;;;;;;20.59;58.35;94002.56;4992780;28;20139;-80
2023/08/16 05:30:34;;;;;;;13.70;12.05;;;;;;;20.73;57.85;94007.34;4988357;28;20494;-77
2023/08/16 05:32:59;;;;;;;12.38;11.05;;;;;;;20.75;57.83;94007.72;4991726;28;20047;-81
2023/08/16 05:35:25;;;;;;;12.63;11.40;;;;;;;20.77;57.26;94011.63;4990912;28;20042;-78
2023/08/16 05:37:50;;;;;;;11.68;10.48;;;;;;;20.78;56.83;93998.88;4988366;28;20018;-78
2023/08/16 05:40:16;;;;;;;13.85;10.35;;;;;;;20.79;56.22;93995.81;4992410;28;20043;-79
2023/08/16 05:42:41;;;;;;;13.07;10.65;;;;;;;20.87;56.12;94012.91;4998809;28;20514;-80
2023/08/16 05:45:07;;;;;;;15.32;10.85;;;;;;;20.83;56.49;94006.63;4990947;28;20541;-78
2023/08/16 05:47:32;;;;;;;10.55;9.52;;;;;;;20.85;56.18;93996.25;4993883;28;20371;-78
2023/08/16 05:49:59;;;;;;;14.65;10.35;;;;;;;20.96;56.05;94005.25;4986461;28;20071;-79
2023/08/16 05:52:25;;;;;;;12.82;10.60;;;;;;;20.94;55.72;94011.03;4987396;28;20046;-76
2023/08/16 05:54:50;;;;;;;11.95;10.48;;;;;;;20.86;55.92;93979.66;4992913;28;20035;-78
2023/08/16 05:57:15;;;;;;;11.30;10.20;;;;;;;21.03;56.16;94005.31;4986770;28;20458;-79
2023/08/16 05:59:41;;;;;;;11.73;10.52;;;;;;;21.01;56.33;94011.09;4989779;28;20031;-78
2023/08/16 06:02:06;;;;;;;10.45;9.55;;;;;;;21.12;56.01;94018.53;4999748;28;20176;-78
2023/08/16 06:04:33;;;;;;;11.35;9.35;;;;;;;21.18;55.54;94017.00;4987114;28;20066;-78
2023/08/16 06:06:59;;;;;;;12.57;10.13;;;;;;;21.16;55.67;94009.28;4992571;28;20042;-79
2023/08/16 06:09:24;;;;;;;10.93;9.75;;;;;;;21.26;56.01;94015.91;4990389;28;20841;-80
2023/08/16 06:11:50;;;;;;;10.20;9.15;;;;;;;21.35;55.09;94021.78;4990519;28;20034;-79
2023/08/16 06:14:15;;;;;;;12.15;10.60;;;;;;;21.40;54.69;94018.72;4989836;28;20374;-79
2023/08/16 06:16:40;;;;;;;15.55;9.48;;;;;;;21.41;55.19;94014.88;4989967;28;20414;-77
2023/08/16 06:19:06;;;;;;;15.45;10.10;;;;;;;21.41;54.77;94004.81;4996819;28;20042;-77
2023/08/16 06:21:31;;;;;;;16.92;10.18;;;;;;;21.41;53.90;94006.75;4989458;28;20562;-77
2023/08/16 06:23:57;;;;;;;11.18;8.98;;;;;;;21.41;53.61;94009.47;4994115;28;20072;-81
2023/08/16 06:26:23;;;;;;;13.85;10.20;;;;;;;21.53;53.96;94021.88;4991507;28;20033;-80
2023/08/16 06:28:48;;;;;;;13.52;9.90;;;;;;;21.40;54.72;93987.03;4995021;28;20189;-79
2023/08/16 06:31:15;;;;;;;10.70;9.63;;;;;;;21.46;54.42;93985.50;4993758;28;20051;-79
2023/08/16 06:33:41;;;;;;;14.68;10.45;;;;;;;21.61;54.27;94012.72;4992807;28;20664;-78
2023/08/16 06:36:06;;;;;;;12.13;9.52;;;;;;;21.61;53.54;94001.88;4992009;28;20514;-80
2023/08/16 06:38:32;;;;;;;14.48;10.25;;;;;;;21.72;53.44;94003.47;4995625;28;20027;-80
2023/08/16 06:40:57;;;;;;;13.30;9.27;;;;;;;21.88;53.85;94006.66;4990685;28;20573;-78
2023/08/16 06:43:23;;;;;;;18.63;10.65;;;;;;;21.90;54.15;94009.00;4991782;28;20031;-78
2023/08/16 06:45:49;;;;;;;15.80;9.90;;;;;;;21.83;52.99;93987.28;4979057;28;20071;-79
2023/08/16 06:48:14;;;;;;;10.80;9.70;;;;;;;21.88;53.69;94001.25;5005638;28;20551;-79
2023/08/16 06:50:40;;;;;;;13.95;10.32;;;;;;;21.97;53.78;94006.31;4995339;28;20039;-78
2023/08/16 06:53:05;;;;;;;12.65;8.65;;;;;;;21.94;53.17;93979.22;4992149;28;20048;-80
2023/08/16 06:55:31;;;;;;;10.05;8.63;;;;;;;22.19;51.09;94005.22;4990082;28;20469;-78
2023/08/16 06:57:56;;;;;;;12.88;9.73;;;;;;;22.16;51.28;93992.44;5010130;28;20081;-79
2023/08/16 07:00:22;;;;;;;11.82;9.85;;;;;;;21.98;52.06;93967.25;4992025;28;20145;-78
2023/08/16 07:02:48;;;;;;;12.85;10.52;;;;;;;21.94;51.78;93980.00;4993126;28;20038;-81
2023/08/16 07:05:13;;;;;;;12.75;9.15;;;;;;;21.96;51.78;93985.78;4992847;28;20067;-82
2023/08/16 07:07:39;;;;;;;11.10;10.00;;;;;;;21.97;52.62;93946.72;4990186;28;20936;-78
2023/08/16 07:10:06;;;;;;;10.88;9.75;;;;;;;22.30;52.85;93978.97;4989994;28;20136;-78
2023/08/16 07:12:31;;;;;;;17.38;11.57;;;;;;;22.40;53.27;93976.66;4990270;28;20406;-78
2023/08/16 07:14:57;;;;;;;14.70;10.95;;;;;;;22.03;52.98;93975.00;4996438;28;20042;-79
2023/08/16 07:17:22;;;;;;;14.93;11.63;;;;;;;22.30;52.13;93978.19;4993930;28;21132;-79
2023/08/16 07:19:48;;;;;;;14.15;10.75;;;;;;;22.46;52.09;93969.72;4993197;28;20474;-78
2023/08/16 07:22:14;;;;;;;16.08;9.90;;;;;;;22.63;51.64;93985.25;4993278;28;20060;-79
2023/08/16 07:24:39;;;;;;;16.10;10.10;;;;;;;22.49;52.48;93985.97;4987618;28;20041;-81
2023/08/16 07:27:05;;;;;;;15.05;9.95;;;;;;;22.52;52.47;93976.31;4985483;28;20038;-78
2023/08/16 07:29:30;;;;;;;13.35;9.75;;;;;;;22.63;52.14;93977.13;4986879;28;20024;-79
2023/08/16 07:31:55;;;;;;;13.00;9.82;;;;;;;22.71;51.79;93970.53;4987217;28;21041;-79
2023/08/16 07:34:21;;;;;;;9.77;8.82;;;;;;;22.58;51.12;93950.41;4985533;28;20054;-78
2023/08/16 07:36:47;;;;;;;10.48;8.70;;;;;;;22.64;51.82;93943.41;4989392;28;20397;-79
2023/08/16 07:39:12;;;;;;;12.70;10.10;;;;;;;22.97;50.69;93974.84;4981154;28;20034;-80
2023/08/16 07:41:38;;;;;;;13.70;9.88;;;;;;;23.02;50.69;93966.31;4977736;28;20027;-79
2023/08/16 07:44:04;;;;;;;11.70;10.25;;;;;;;22.93;50.30;93961.28;4982281;28;20111;-80
2023/08/16 07:46:29;;;;;;;13.40;10.05;;;;;;;23.13;50.67;93975.22;4986161;28;20720;-79
2023/08/16 07:48:55;;;;;;;14.95;9.45;;;;;;;23.01;50.63;93968.25;4985135;28;20042;-81
2023/08/16 07:51:21;;;;;;;15.27;9.25;;;;;;;22.81;49.92;93942.66;4985862;28;20035;-79
2023/08/16 07:53:46;;;;;;;13.63;9.63;;;;;;;22.93;51.08;93942.28;4987862;28;20329;-79
2023/08/16 07:56:11;;;;;;;13.95;10.07;;;;;;;23.01;50.46;93938.44;4984281;28;20044;-79
2023/08/16 07:58:37;;;;;;;8.85;7.97;;;;;;;23.20;51.12;93941.88;4987469;28;20401;-80
2023/08/16 08:01:02;;;;;;;13.75;8.65;;;;;;;23.11;49.84;93955.84;4991808;28;20157;-79
2023/08/16 08:03:29;;;;;;;10.75;8.27;;;;;;;23.36;49.52;93977.53;4989806;28;20035;-80
2023/08/16 08:06:00;;;;;;;10.25;8.65;;;;;;;23.20;49.87;93967.09;4983609;28;20494;-81
2023/08/16 08:08:26;;;;;;;11.70;9.38;;;;;;;23.33;50.26;93968.22;5005643;28;20045;-79
2023/08/16 08:10:52;;;;;;;16.92;9.55;;;;;;;23.32;49.28;93971.34;4980731;28;20039;-78
2023/08/16 08:13:17;;;;;;;11.38;10.18;;;;;;;23.39;49.74;93976.75;4981777;28;20048;-79
2023/08/16 08:15:42;;;;;;;13.93;9.60;;;;;;;23.25;49.68;93974.06;4990298;28;20533;-79
2023/08/16 08:18:08;;;;;;;13.45;10.63;;;;;;;23.25;50.14;93982.19;4984663;28;20617;-79
2023/08/16 08:20:35;;;;;;;14.95;9.90;;;;;;;23.42;49.28;93975.94;4989889;28;20030;-80
2023/08/16 08:23:00;;;;;;;14.55;8.75;;;;;;;23.59;49.85;93975.19;4991202;28;20571;-80
2023/08/16 08:25:26;;;;;;;14.52;9.27;;;;;;;23.32;48.87;93976.78;4992144;28;20034;-80
2023/08/16 08:27:51;;;;;;;13.15;9.10;;;;;;;23.30;48.72;93962.81;4990186;28;20567;-79
2023/08/16 08:30:18;;;;;;;10.82;8.40;;;;;;;23.36;48.49;93966.69;4989649;28;20041;-81
2023/08/16 08:32:44;;;;;;;13.40;8.15;;;;;;;23.49;48.75;93946.91;4992809;28;20399;-80
2023/08/16 08:35:10;;;;;;;8.75;7.95;;;;;;;23.79;47.57;93970.09;4983131;28;20626;-80
2023/08/16 08:37:35;;;;;;;10.60;8.68;;;;;;;23.41;47.40;93958.16;4994273;28;20076;-79
2023/08/16 08:40:00;;;;;;;12.90;9.20;;;;;;;23.66;47.51;93974.41;4995322;28;20042;-78
2023/08/16 08:42:28;;;;;;;9.00;8.07;;;;;;;23.65;47.90;93979.06;4986198;28;20030;-79
2023/08/16 08:44:55;;;;;;;10.85;7.72;;;;;;;23.81;47.20;93975.88;4990522;28;20545;-80
2023/08/16 08:47:21;;;;;;;12.40;7.45;;;;;;;23.92;48.50;93961.13;4989610;28;20113;-78
2023/08/16 08:49:48;;;;;;;11.63;8.10;;;;;;;23.54;47.74;93956.59;4990174;28;20022;-78
2023/08/16 08:52:15;;;;;;;15.30;9.55;;;;;;;23.74;47.57;93941.41;4987847;28;20040;-80
2023/08/16 08:54:40;;;;;;;13.95;8.80;;;;;;;23.51;48.57;93965.53;4986491;28;20032;-80
2023/08/16 08:57:06;;;;;;;13.38;9.48;;;;;;;23.71;48.39;93955.75;4996411;28;20685;-79
2023/08/16 08:59:33;;;;;;;14.70;10.07;;;;;;;23.94;46.91;93975.09;4992709;28;20025;-78
2023/08/16 09:01:59;;;;;;;11.90;9.00;;;;;;;23.78;48.16;93960.38;4989102;28;20052;-79
2023/08/16 09:04:26;;;;;;;11.18;8.95;;;;;;;23.91;47.66;93956.06;4988126;28;20062;-80
2023/08/16 09:06:53;;;;;;;12.80;9.15;;;;;;;23.68;48.61;93967.41;4991608;28;20064;-80
2023/08/16 09:09:20;;;;;;;15.57;9.23;;;;;;;23.92;47.97;93941.31;4991403;28;20046;-80
2023/08/16 09:11:45;;;;;;;11.70;9.27;;;;;;;24.04;47.25;93961.84;4992598;28;20034;-78
2023/08/16 09:14:11;;;;;;;14.55;8.60;;;;;;;24.06;47.25;93962.22;4992199;28;20085;-80
2023/08/16 09:16:36;;;;;;;12.77;8.85;;;;;;;24.13;47.42;93957.56;4991915;28;20045;-80
2023/08/16 09:19:02;;;;;;;10.85;8.40;;;;;;;24.34;47.55;93967.56;4984403;28;20034;-78
2023/08/16 09:21:29;;;;;;;13.80;9.85;;;;;;;24.08;46.98;93951.72;4987648;28;20577;-79
2023/08/16 09:23:56;;;;;;;10.48;9.38;;;;;;;24.06;46.94;93954.84;4988142;28;20044;-81
2023/08/16 09:26:21;;;;;;;9.68;8.77;;;;;;;24.02;47.09;93970.38;4998630;28;20165;-79
2023/08/16 09:28:46;;;;;;;10.30;8.80;;;;;;;24.23;46.60;93955.97;4989142;28;20038;-78
2023/08/16 09:31:12;;;;;;;9.55;7.82;;;;;;;24.42;46.87;93958.19;4995789;28;20149;-80
2023/08/16 09:33:38;;;;;;;12.80;9.43;;;;;;;24.55;46.36;93959.25;4989451;28;20437;-77
2023/08/16 09:36:04;;;;;;;15.93;9.63;;;;;;;24.49;46.28;93960.88;4993446;28;20413;-80
2023/08/16 09:38:32;;;;;;;10.80;9.52;;;;;;;24.14;46.44;93931.16;4988141;28;20502;-79
2023/08/16 09:40:58;;;;;;;12.35;9.27;;;;;;;24.55;46.65;93959.25;4991441;28;20028;-80
2023/08/16 09:43:23;;;;;;;10.85;9.75;;;;;;;24.66;46.24;93951.81;4989057;28;20207;-81
2023/08/16 09:45:51;;;;;;;10.30;9.30;;;;;;;24.47;46.08;93960.50;4993415;28;20240;-79
2023/08/16 09:48:19;;;;;;;11.60;9.25;;;;;;;24.77;44.67;93955.28;4989313;28;20513;-80
2023/08/16 09:50:45;;;;;;;13.63;10.00;;;;;;;24.63;45.48;93960.78;4985551;28;20800;-80
2023/08/16 09:53:12;;;;;;;15.15;8.38;;;;;;;24.57;44.96;93951.50;4996145;28;20024;-79
2023/08/16 09:55:40;;;;;;;10.40;8.38;;;;;;;24.66;45.25;93938.22;4998519;28;20050;-80
2023/08/16 09:58:07;;;;;;;12.73;9.60;;;;;;;24.66;45.19;93959.97;4996528;28;20770;-80
2023/08/16 10:00:34;;;;;;;13.15;8.98;;;;;;;24.82;45.88;93963.00;4988914;28;20038;-79
2023/08/16 10:03:01;;;;;;;13.40;9.95;;;;;;;24.06;45.19;93875.28;4992949;28;20683;-80
2023/08/16 10:05:27;;;;;;;12.32;8.98;;;;;;;24.59;45.66;93960.00;4984343;28;20131;-80
2023/08/16 10:07:54;;;;;;;11.80;9.48;;;;;;;24.01;45.35;93937.00;4994151;28;20030;-78
2023/08/16 10:10:20;;;;;;;11.30;9.05;;;;;;;23.90;46.22;93966.19;4990801;28;20095;-78
2023/08/16 10:12:46;;;;;;;12.18;8.93;;;;;;;24.29;45.69;93967.97;4992491;28;20051;-78
2023/08/16 10:15:12;;;;;;;8.00;7.20;;;;;;;24.17;45.26;93973.84;4989782;28;20046;-78
2023/08/16 10:17:39;;;;;;;11.73;9.07;;;;;;;24.44;44.47;93947.69;4994238;28;20041;-78
2023/08/16 10:20:11;;;;;;;14.10;9.57;;;;;;;24.65;45.08;93963.09;4987124;28;20034;-80
2023/08/16 10:22:38;;;;;;;11.75;9.70;;;;;;;23.97;45.71;93952.56;4989474;28;20046;-78
2023/08/16 10:25:12;;;;;;;10.65;7.72;;;;;;;24.29;45.47;93951.66;4991157;28;20052;-78
2023/08/16 10:27:38;;;;;;;;;;;;;;;24.35;45.25;93963.66;4985664;28;20034;-79
2023/08/16 10:30:09;;;;;;;12.18;8.80;;;;;;;24.34;44.92;93948.53;4996482;28;19922;-78
2023/08/16 10:32:43;;;;;;;12.57;8.57;;;;;;;24.68;45.21;93957.63;4987744;28;20033;-78
2023/08/16 10:35:09;;;;;;;12.30;8.35;;;;;;;24.64;44.97;93943.28;4991880;28;20078;-79
2023/08/16 10:37:35;;;;;;;9.40;8.48;;;;;;;24.46;44.89;93950.78;4995000;28;20038;-79
2023/08/16 10:40:01;;;;;;;13.30;8.55;;;;;;;24.36;44.67;93951.63;4993668;28;20534;-79
2023/08/16 10:42:27;;;;;;;14.38;8.80;;;;;;;24.09;44.76;93896.25;4991067;28;20050;-80
2023/08/16 10:44:52;;;;;;;9.57;8.30;;;;;;;24.61;44.64;93948.75;4992340;28;20034;-79
2023/08/16 10:47:28;;;;;;;11.40;8.20;;;;;;;24.64;44.62;93943.28;4992292;28;20026;-79
2023/08/16 10:49:54;;;;;;;11.10;8.20;;;;;;;24.56;44.59;93946.44;4987837;28;20046;-78
2023/08/16 10:52:29;;;;;;;11.88;8.43;;;;;;;24.67;44.36;93931.63;4997273;28;20042;-79
2023/08/16 10:54:55;;;;;;;10.48;8.23;;;;;;;24.59;44.22;93938.25;4989219;28;20081;-78
2023/08/16 10:57:27;;;;;;;14.00;9.05;;;;;;;24.67;44.28;93945.22;4970326;28;20398;-79
2023/08/16 11:00:07;;;;;;;11.43;8.57;;;;;;;24.46;43.90;93941.84;4979415;28;21000;-79
2023/08/16 11:02:35;;;;;;;13.75;9.35;;;;;;;24.37;43.87;93923.28;4988762;28;20038;-79
2023/08/16 11:05:03;;;;;;;11.90;7.63;;;;;;;24.46;44.38;93918.16;4988405;28;20300;-80
2023/08/16 11:07:29;;;;;;;10.32;7.78;;;;;;;24.64;44.52;93943.28;4978434;28;20065;-79
2023/08/16 11:10:01;;;;;;;8.77;7.88;;;;;;;24.62;43.70;93932.03;4999827;28;20052;-80
2023/08/16 11:12:30;;;;;;;14.15;9.30;;;;;;;24.77;43.57;93936.22;4996387;28;20456;-77
2023/08/16 11:14:59;;;;;;;12.60;7.53;;;;;;;24.89;43.59;93934.19;4981951;28;20038;-80
2023/08/16 11:17:28;;;;;;;13.98;8.73;;;;;;;25.00;43.37;93938.38;5005556;28;20042;-79
2023/08/16 11:19:54;;;;;;;12.48;9.35;;;;;;;24.81;43.35;93938.91;4999050;28;21059;-78